Airfield :
LOGIN :

Register | Disclaimer

   EN    FR    IT 

 










Legend :    VFR   Marginal VFR   IFR   Intensive IFR   Very Intensive IFR
Visi :
Ceiling :
>= 8 km
>= 3000ft
5 to 8 km
1000 to 3000 ft
1500m to 5 km
500 to 1000 ft
800 to 1500m
200 to 500 ft
< 800m
< 200 ft
Symbols :   Thunderstorms  Fog  Heavy snow  Heavy precipitations  Wind > 20 kt
SIGMETs :     Misc.  Thunderstorms  Icing  Turbulence  Mountain Waves  Volcanic Ashes






- Airport Elevation : 1470 ft
- IATA code : KLU


LOWK - Klagenfurt

CURRENT METAR :
  • 271150Z 08005KT 060V140 9999 FEW060 05/M01 Q1008 R10L/29//95 NOSIG

EXPIRED METARs :
  • 271120Z 06003KT 020V110 9999 FEW060 05/M02 Q1008 R10L/29//95 NOSIG
  • 271050Z VRB02KT 9999 FEW015 04/M02 Q1009 R10L/29//95 NOSIG
  • 271020Z 32002KT 9999 FEW008 04/M02 Q1010 R10L/29//95 NOSIG
  • 270950Z 35004KT 9999 FEW008 03/M01 Q1009 R10L/29//95 NOSIG
  • 270920Z 33003KT 9999 FEW008 01/M02 Q1010 R10L/29//95 NOSIG

TAF TAF LOWK
Valid from the 27 at 12:00 until the 28 at 12:00 UTC


271115Z 2712/2812 VRB02KT 9999 FEW060 TX08/2812Z TNM01/2805Z
TEMPO 2720/2809 -SHSN SCT040 BKN060
BECMG 2809/2811 34010KT
TEMPO 2810/2812 36020G30KT



MET'MAP, your aeronautical weather chart ! - Copyright ORBIFLY December 2007 - Disclaimer

ORBIFLY MET'MAP TEAM :

Programming & Development : Alexandra Zaïnal
Concept & original design : Baudouin d'Aumeries
Assistance for programming : Marc-Olivier Méhu
Technical & hardware support : Manuel Goepfert

Contact : metmap@orbifly.com




SOURCES & CREDITS :

   NOAA